Time;durP1;ratioP1;P1;durP2;ratioP2;P2;SDS_P1;SDS_P2;PMS_P1;PMS_P2;Temp;Humidity;BMP_temperature;BMP_pressure;BME280_temperature;BME280_humidity;BME280_pressure;Samples;Min_cycle;Max_cycle;Signal;HPM_P1;HPM_P2
2022/04/04 00:01:39;;;;;;;23.27;8.45;;;;;;;;;;5017823;28;20378;-78
2022/04/04 00:04:05;;;;;;;23.88;7.97;;;;;;;;;;5006500;28;20036;-77
2022/04/04 00:06:33;;;;;;;21.30;7.65;;;;;;;;;;5025245;28;20128;-78
2022/04/04 00:08:58;;;;;;;18.95;7.90;;;;;;;;;;5023772;28;20033;-78
2022/04/04 00:11:29;;;;;;;20.90;7.68;;;;;;;;;;5004925;28;20637;-78
2022/04/04 00:13:54;;;;;;;21.05;8.05;;;;;;;;;;5024137;28;20033;-77
2022/04/04 00:16:20;;;;;;;16.95;7.88;;;;;;;;;;5005336;28;20025;-77
2022/04/04 00:18:45;;;;;;;26.38;7.47;;;;;;;;;;5023974;28;20068;-78
2022/04/04 00:21:10;;;;;;;19.48;7.38;;;;;;;;;;5003809;28;20140;-77
2022/04/04 00:23:35;;;;;;;19.08;7.55;;;;;;;;;;5010022;28;20569;-78
2022/04/04 00:26:05;;;;;;;24.40;7.95;;;;;;;;;;5020845;28;20029;-76
2022/04/04 00:28:31;;;;;;;26.38;9.05;;;;;;;;;;5023458;28;20086;-76
2022/04/04 00:30:56;;;;;;;25.05;9.32;;;;;;;;;;5004666;28;20041;-77
2022/04/04 00:33:21;;;;;;;23.13;9.70;;;;;;;;;;5021893;28;20037;-77
2022/04/04 00:35:47;;;;;;;32.78;9.70;;;;;;;;;;4993272;28;20044;-77
2022/04/04 00:38:14;;;;;;;17.98;8.63;;;;;;;;;;5020720;28;20025;-76
2022/04/04 00:40:40;;;;;;;25.15;9.27;;;;;;;;;;5022627;28;20083;-78
2022/04/04 00:43:06;;;;;;;31.95;9.55;;;;;;;;;;5004335;28;20034;-78
2022/04/04 00:45:31;;;;;;;21.42;9.63;;;;;;;;;;5002526;28;20426;-79
2022/04/04 00:47:56;;;;;;;23.02;9.43;;;;;;;;;;5023392;28;20498;-78
2022/04/04 00:50:25;;;;;;;29.27;9.38;;;;;;;;;;5004871;28;20033;-77
2022/04/04 00:52:51;;;;;;;22.63;9.23;;;;;;;;;;5022253;28;20043;-78
2022/04/04 00:55:17;;;;;;;25.25;9.32;;;;;;;;;;5022009;28;20330;-78
2022/04/04 00:57:43;;;;;;;20.02;9.07;;;;;;;;;;5022303;28;20025;-76
2022/04/04 01:00:09;;;;;;;32.22;10.10;;;;;;;;;;5022837;28;20480;-69
2022/04/04 01:02:37;;;;;;;20.73;10.02;;;;;;;;;;5023721;28;20495;-69
2022/04/04 01:05:04;;;;;;;17.63;9.43;;;;;;;;;;5023361;28;20020;-70
2022/04/04 01:07:32;;;;;;;26.25;9.07;;;;;;;;;;5022904;28;20049;-69
2022/04/04 01:09:57;;;;;;;32.33;9.27;;;;;;;;;;5022857;28;20051;-70
2022/04/04 01:12:23;;;;;;;24.58;9.80;;;;;;;;;;5022510;28;20041;-70
2022/04/04 01:14:51;;;;;;;23.83;8.70;;;;;;;;;;5003744;28;20071;-70
2022/04/04 01:17:17;;;;;;;21.95;8.70;;;;;;;;;;5022623;28;20033;-69
2022/04/04 01:19:42;;;;;;;23.63;9.00;;;;;;;;;;5005482;28;20301;-69
2022/04/04 01:22:13;;;;;;;25.02;9.35;;;;;;;;;;5022334;28;20059;-69
2022/04/04 01:24:38;;;;;;;24.48;10.98;;;;;;;;;;5022179;28;20097;-69
2022/04/04 01:27:05;;;;;;;25.10;10.05;;;;;;;;;;5023997;28;20044;-70
2022/04/04 01:29:30;;;;;;;28.42;10.00;;;;;;;;;;5022312;28;20686;-70
2022/04/04 01:31:58;;;;;;;29.80;10.13;;;;;;;;;;5022523;28;20090;-70
2022/04/04 01:34:24;;;;;;;33.45;10.43;;;;;;;;;;5022765;28;20166;-71
2022/04/04 01:36:49;;;;;;;28.08;9.95;;;;;;;;;;5004455;28;20041;-69
2022/04/04 01:39:17;;;;;;;20.65;9.65;;;;;;;;;;5020158;28;20311;-69
2022/04/04 01:41:45;;;;;;;22.20;10.02;;;;;;;;;;5023009;28;20024;-70
2022/04/04 01:44:11;;;;;;;29.52;10.70;;;;;;;;;;5022516;28;20110;-71
2022/04/04 01:46:37;;;;;;;30.20;10.63;;;;;;;;;;5024475;28;20024;-71
2022/04/04 01:49:05;;;;;;;19.48;9.18;;;;;;;;;;5022764;28;20120;-70
2022/04/04 01:51:31;;;;;;;26.45;10.18;;;;;;;;;;5022089;28;20899;-69
2022/04/04 01:53:58;;;;;;;27.08;9.52;;;;;;;;;;5020876;28;20033;-71
2022/04/04 01:56:23;;;;;;;22.77;9.27;;;;;;;;;;5020948;28;22059;-71
2022/04/04 01:58:48;;;;;;;26.90;8.80;;;;;;;;;;5004196;28;20040;-71
2022/04/04 02:01:16;;;;;;;28.00;9.63;;;;;;;;;;5003949;28;20029;-69
2022/04/04 02:03:42;;;;;;;29.92;10.85;;;;;;;;;;5021688;28;20257;-69
2022/04/04 02:06:09;;;;;;;29.27;8.93;;;;;;;;;;5022385;28;20087;-69
2022/04/04 02:08:35;;;;;;;30.42;9.25;;;;;;;;;;5021147;28;20052;-71
2022/04/04 02:11:01;;;;;;;32.70;9.82;;;;;;;;;;5021994;28;20026;-71
2022/04/04 02:13:27;;;;;;;32.63;9.35;;;;;;;;;;5022767;28;20040;-69
2022/04/04 02:15:53;;;;;;;38.35;9.90;;;;;;;;;;5021028;28;20017;-71
2022/04/04 02:18:19;;;;;;;26.00;8.25;;;;;;;;;;5019977;28;20025;-70
2022/04/04 02:20:50;;;;;;;33.40;8.43;;;;;;;;;;5021564;28;20032;-71
2022/04/04 02:23:18;;;;;;;37.80;9.48;;;;;;;;;;5020870;28;20037;-70
2022/04/04 02:25:44;;;;;;;25.10;8.20;;;;;;;;;;5004006;28;20037;-68
2022/04/04 02:28:10;;;;;;;23.90;7.68;;;;;;;;;;5022258;28;20527;-70
2022/04/04 02:30:39;;;;;;;26.90;7.75;;;;;;;;;;5021741;28;20091;-70
2022/04/04 02:33:04;;;;;;;25.65;7.68;;;;;;;;;;5021733;28;20027;-69
2022/04/04 02:35:30;;;;;;;21.55;7.93;;;;;;;;;;5022476;28;20119;-69
2022/04/04 02:37:56;;;;;;;29.77;7.70;;;;;;;;;;5022128;28;20106;-72
2022/04/04 02:40:24;;;;;;;28.52;7.32;;;;;;;;;;5021716;28;20025;-70
2022/04/04 02:42:49;;;;;;;31.52;8.75;;;;;;;;;;5002732;28;20050;-69
2022/04/04 02:45:14;;;;;;;24.23;7.43;;;;;;;;;;5002980;28;20340;-71
2022/04/04 02:47:41;;;;;;;29.92;8.23;;;;;;;;;;5021879;28;20318;-69
2022/04/04 02:50:06;;;;;;;26.52;7.50;;;;;;;;;;5021397;28;20093;-70
2022/04/04 02:52:34;;;;;;;32.83;7.90;;;;;;;;;;5003549;28;20033;-71
2022/04/04 02:56:28;;;;;;;27.35;7.28;;;;;;;;;;4986702;28;20037;-70
2022/04/04 02:57:48;;;;;;;34.88;7.75;;;;;;;;;;5003043;28;20048;-69
2022/04/04 03:00:17;;;;;;;23.08;7.43;;;;;;;;;;5020377;28;20037;-70
2022/04/04 03:02:46;;;;;;;26.13;7.32;;;;;;;;;;5021115;28;20075;-71
2022/04/04 03:05:11;;;;;;;31.00;7.28;;;;;;;;;;5021768;28;20037;-69
2022/04/04 03:07:37;;;;;;;30.13;7.25;;;;;;;;;;5020683;28;20028;-69
2022/04/04 03:10:03;;;;;;;24.92;6.60;;;;;;;;;;5020568;28;20473;-69
2022/04/04 03:12:29;;;;;;;26.25;6.93;;;;;;;;;;5021356;28;20028;-70
2022/04/04 03:14:54;;;;;;;22.85;7.63;;;;;;;;;;5006722;28;20026;-72
2022/04/04 03:17:22;;;;;;;25.13;6.63;;;;;;;;;;5021256;28;20044;-70
2022/04/04 03:19:48;;;;;;;28.95;6.90;;;;;;;;;;5004097;28;20033;-71
2022/04/04 03:22:14;;;;;;;22.67;5.90;;;;;;;;;;5019503;28;20318;-69
2022/04/04 03:24:41;;;;;;;32.25;7.10;;;;;;;;;;5020074;28;21881;-71
2022/04/04 03:27:07;;;;;;;32.13;7.32;;;;;;;;;;5020326;28;20060;-70
2022/04/04 03:29:32;;;;;;;32.38;7.45;;;;;;;;;;5006992;28;20033;-71
2022/04/04 03:32:01;;;;;;;29.83;7.47;;;;;;;;;;5021207;28;20064;-71
2022/04/04 03:34:29;;;;;;;28.70;7.28;;;;;;;;;;5021768;28;20364;-70
2022/04/04 03:36:54;;;;;;;41.85;8.18;;;;;;;;;;5021115;28;20040;-71
2022/04/04 03:39:20;;;;;;;35.70;7.72;;;;;;;;;;5018436;28;20180;-70
2022/04/04 03:41:48;;;;;;;32.05;7.22;;;;;;;;;;5006591;28;20025;-70
2022/04/04 03:44:13;;;;;;;33.75;7.70;;;;;;;;;;5002322;28;22065;-71
2022/04/04 03:46:41;;;;;;;26.98;7.03;;;;;;;;;;4992497;28;20037;-69
2022/04/04 03:49:06;;;;;;;32.55;7.30;;;;;;;;;;5006566;28;20052;-68
2022/04/04 03:51:31;;;;;;;36.92;6.47;;;;;;;;;;5021301;28;20037;-69
2022/04/04 03:53:57;;;;;;;21.05;5.97;;;;;;;;;;5020039;28;20460;-71
2022/04/04 03:56:24;;;;;;;35.72;6.63;;;;;;;;;;5001382;28;20047;-69
2022/04/04 03:58:54;;;;;;;25.08;5.78;;;;;;;;;;5019979;28;20032;-72
2022/04/04 04:01:20;;;;;;;26.17;7.53;;;;;;;;;;5018655;28;20040;-70
2022/04/04 04:03:46;;;;;;;32.97;6.97;;;;;;;;;;5003838;28;20159;-70
2022/04/04 04:06:16;;;;;;;29.27;6.32;;;;;;;;;;5020602;28;20049;-70
2022/04/04 04:08:43;;;;;;;26.67;5.75;;;;;;;;;;5018375;28;20045;-69
2022/04/04 04:11:08;;;;;;;29.67;6.30;;;;;;;;;;5021395;28;20033;-71
2022/04/04 04:13:34;;;;;;;28.35;5.80;;;;;;;;;;5002014;28;20033;-69
2022/04/04 04:16:00;;;;;;;34.17;7.25;;;;;;;;;;5020414;28;20714;-68
2022/04/04 04:18:31;;;;;;;29.30;6.15;;;;;;;;;;5002697;28;20032;-70
2022/04/04 04:20:59;;;;;;;33.03;5.75;;;;;;;;;;5022195;28;20078;-72
2022/04/04 04:23:24;;;;;;;31.65;5.32;;;;;;;;;;5005586;28;20059;-70
2022/04/04 04:25:50;;;;;;;16.38;4.30;;;;;;;;;;5020685;28;20046;-69
2022/04/04 04:28:18;;;;;;;27.48;5.55;;;;;;;;;;5019529;28;20615;-68
2022/04/04 04:30:44;;;;;;;24.25;4.00;;;;;;;;;;5002199;28;20037;-70
2022/04/04 04:33:09;;;;;;;22.90;4.63;;;;;;;;;;5020308;28;20035;-70
2022/04/04 04:35:36;;;;;;;29.90;4.90;;;;;;;;;;5020503;28;20064;-69
2022/04/04 04:38:02;;;;;;;30.45;6.20;;;;;;;;;;5020382;28;20029;-69
2022/04/04 04:40:30;;;;;;;33.20;6.00;;;;;;;;;;5020365;28;20021;-71
2022/04/04 04:42:56;;;;;;;19.17;4.43;;;;;;;;;;5020576;28;20393;-67
2022/04/04 04:45:27;;;;;;;23.48;4.80;;;;;;;;;;5020872;28;20455;-69
2022/04/04 04:47:55;;;;;;;24.63;4.55;;;;;;;;;;5020971;28;20036;-69
2022/04/04 04:50:22;;;;;;;18.02;4.57;;;;;;;;;;5005372;28;20186;-68
2022/04/04 04:52:52;;;;;;;22.77;4.20;;;;;;;;;;5024150;28;20728;-70
2022/04/04 04:55:18;;;;;;;19.90;4.50;;;;;;;;;;5023217;28;20040;-68
2022/04/04 04:57:45;;;;;;;18.58;3.65;;;;;;;;;;5023165;28;20037;-70
2022/04/04 05:00:14;;;;;;;18.30;4.07;;;;;;;;;;5023014;28;20162;-70
2022/04/04 05:02:39;;;;;;;23.05;4.85;;;;;;;;;;5024629;28;20160;-68
2022/04/04 05:05:04;;;;;;;18.42;4.80;;;;;;;;;;5004215;28;21964;-68
2022/04/04 05:07:30;;;;;;;15.95;4.35;;;;;;;;;;5025201;28;20029;-69
2022/04/04 05:09:56;;;;;;;20.23;5.35;;;;;;;;;;5005027;28;20068;-68
2022/04/04 05:12:21;;;;;;;16.30;4.88;;;;;;;;;;5005305;28;20344;-71
2022/04/04 05:14:48;;;;;;;19.60;5.95;;;;;;;;;;5023603;28;20064;-68
2022/04/04 05:17:13;;;;;;;19.80;6.20;;;;;;;;;;5020882;28;20471;-68
2022/04/04 05:19:39;;;;;;;22.65;6.57;;;;;;;;;;5006718;28;20033;-68
2022/04/04 05:22:07;;;;;;;18.73;6.18;;;;;;;;;;5005351;28;20139;-67
2022/04/04 05:24:32;;;;;;;23.23;7.47;;;;;;;;;;5008713;28;20053;-70
2022/04/04 05:26:57;;;;;;;19.30;7.85;;;;;;;;;;5021660;28;20037;-70
2022/04/04 05:29:31;;;;;;;26.08;7.95;;;;;;;;;;4989880;28;20168;-68
2022/04/04 05:31:58;;;;;;;19.58;7.35;;;;;;;;;;5021783;28;20068;-72
2022/04/04 05:34:30;;;;;;;23.88;7.53;;;;;;;;;;5005089;28;20465;-70
2022/04/04 05:36:55;;;;;;;28.55;8.57;;;;;;;;;;5023161;28;20041;-70
2022/04/04 05:39:24;;;;;;;28.13;8.20;;;;;;;;;;5004817;28;20277;-68
2022/04/04 05:41:52;;;;;;;26.63;9.43;;;;;;;;;;5022912;28;20021;-70
2022/04/04 05:44:18;;;;;;;32.85;9.48;;;;;;;;;;4988651;28;20025;-69
2022/04/04 05:46:43;;;;;;;28.63;8.60;;;;;;;;;;5022569;28;20040;-68
2022/04/04 05:49:11;;;;;;;25.40;9.88;;;;;;;;;;5010221;28;20849;-69
2022/04/04 05:51:37;;;;;;;30.85;9.73;;;;;;;;;;5022881;28;20032;-68
2022/04/04 05:54:05;;;;;;;31.23;9.95;;;;;;;;;;5004287;28;20261;-69
2022/04/04 05:56:34;;;;;;;33.90;10.18;;;;;;;;;;5010662;28;20868;-67
2022/04/04 05:58:59;;;;;;;27.80;9.88;;;;;;;;;;5020433;28;20041;-69
2022/04/04 06:01:27;;;;;;;37.33;11.73;;;;;;;;;;5003336;28;20495;-72
2022/04/04 06:03:52;;;;;;;30.17;9.88;;;;;;;;;;5003054;28;20417;-70
2022/04/04 06:06:18;;;;;;;34.78;10.73;;;;;;;;;;5022641;28;20051;-70
2022/04/04 06:08:47;;;;;;;31.73;10.73;;;;;;;;;;5022397;28;20166;-69
2022/04/04 06:11:13;;;;;;;27.05;10.07;;;;;;;;;;5022081;28;20030;-70
2022/04/04 06:13:39;;;;;;;28.67;9.38;;;;;;;;;;5021074;28;20029;-67
2022/04/04 06:16:04;;;;;;;28.13;9.38;;;;;;;;;;5020705;28;20058;-69
2022/04/04 06:18:30;;;;;;;25.63;9.18;;;;;;;;;;5022051;28;20029;-68
2022/04/04 06:20:59;;;;;;;29.42;9.50;;;;;;;;;;5003806;28;20044;-67
2022/04/04 06:23:25;;;;;;;27.30;10.15;;;;;;;;;;5003640;28;20053;-69
2022/04/04 06:25:53;;;;;;;28.42;9.48;;;;;;;;;;5020913;28;20048;-70
2022/04/04 06:28:19;;;;;;;31.17;9.07;;;;;;;;;;5003263;28;20345;-69
2022/04/04 06:30:44;;;;;;;33.65;10.38;;;;;;;;;;5021981;28;20032;-69
2022/04/04 06:33:12;;;;;;;37.58;10.45;;;;;;;;;;5007974;28;20060;-70
2022/04/04 06:35:37;;;;;;;41.58;11.48;;;;;;;;;;5007740;28;20065;-68
2022/04/04 06:38:08;;;;;;;35.58;11.15;;;;;;;;;;5001496;28;20158;-67
2022/04/04 06:40:34;;;;;;;34.45;11.15;;;;;;;;;;5002786;28;20112;-67
2022/04/04 06:42:59;;;;;;;28.10;10.88;;;;;;;;;;5020623;28;20076;-67
2022/04/04 06:45:26;;;;;;;37.38;12.18;;;;;;;;;;5019215;28;20735;-69
2022/04/04 06:47:53;;;;;;;36.90;11.25;;;;;;;;;;5008141;28;20029;-69
2022/04/04 06:50:19;;;;;;;32.72;10.23;;;;;;;;;;5019018;28;20083;-69
2022/04/04 06:52:48;;;;;;;38.83;12.23;;;;;;;;;;5021116;28;20029;-66
2022/04/04 06:55:14;;;;;;;44.90;12.88;;;;;;;;;;5019820;28;20438;-68
2022/04/04 06:57:42;;;;;;;38.15;12.30;;;;;;;;;;5020920;28;20523;-67
2022/04/04 07:00:08;;;;;;;40.90;12.07;;;;;;;;;;5020147;28;20044;-66
2022/04/04 07:02:38;;;;;;;46.70;12.23;;;;;;;;;;5021141;28;20713;-66
2022/04/04 07:05:05;;;;;;;44.03;13.05;;;;;;;;;;5000871;28;20104;-66
2022/04/04 07:07:30;;;;;;;43.53;12.90;;;;;;;;;;5019862;28;20528;-67
2022/04/04 07:09:59;;;;;;;45.03;14.70;;;;;;;;;;5018929;28;20097;-68
2022/04/04 07:12:25;;;;;;;46.72;14.00;;;;;;;;;;5003677;28;20068;-67
2022/04/04 07:14:53;;;;;;;45.75;13.27;;;;;;;;;;5001994;28;20065;-67
2022/04/04 07:17:19;;;;;;;61.55;12.88;;;;;;;;;;5018363;28;20126;-69
2022/04/04 07:19:45;;;;;;;39.60;11.90;;;;;;;;;;5002303;28;20021;-70
2022/04/04 07:22:14;;;;;;;50.00;11.75;;;;;;;;;;5001953;28;20128;-67
2022/04/04 07:24:43;;;;;;;45.22;10.95;;;;;;;;;;5019096;28;20060;-68
2022/04/04 07:27:09;;;;;;;43.65;12.32;;;;;;;;;;5018921;28;20048;-68
2022/04/04 07:29:34;;;;;;;35.42;11.50;;;;;;;;;;5020574;28;20493;-68
2022/04/04 07:32:02;;;;;;;43.80;12.13;;;;;;;;;;5001090;28;20053;-68
2022/04/04 07:34:27;;;;;;;43.65;12.43;;;;;;;;;;5019099;28;20056;-68
2022/04/04 07:36:53;;;;;;;47.47;11.95;;;;;;;;;;5020307;28;20068;-69
2022/04/04 07:39:20;;;;;;;44.08;13.30;;;;;;;;;;5020790;28;20025;-67
2022/04/04 07:41:46;;;;;;;44.55;13.18;;;;;;;;;;5020507;28;20033;-69
2022/04/04 07:44:14;;;;;;;50.90;14.00;;;;;;;;;;5002477;28;20210;-67
2022/04/04 07:46:40;;;;;;;49.33;14.10;;;;;;;;;;5018834;28;20523;-70
2022/04/04 07:49:06;;;;;;;54.50;13.88;;;;;;;;;;5019840;28;20041;-67
2022/04/04 07:51:35;;;;;;;51.45;14.95;;;;;;;;;;5020231;28;20149;-68
2022/04/04 07:54:00;;;;;;;51.72;14.13;;;;;;;;;;5019310;28;20633;-67
2022/04/04 07:56:26;;;;;;;50.20;14.43;;;;;;;;;;5000959;28;20029;-70
2022/04/04 07:58:53;;;;;;;51.90;12.90;;;;;;;;;;5020314;28;20740;-68
2022/04/04 08:01:19;;;;;;;61.05;14.35;;;;;;;;;;4986417;28;20515;-68
2022/04/04 08:03:47;;;;;;;61.83;14.10;;;;;;;;;;5001918;28;20103;-69
2022/04/04 08:06:12;;;;;;;57.75;14.80;;;;;;;;;;5002875;28;20045;-70
2022/04/04 08:08:38;;;;;;;80.32;15.57;;;;;;;;;;5002754;28;20041;-69
2022/04/04 08:11:08;;;;;;;48.55;12.68;;;;;;;;;;5019069;28;20548;-68
2022/04/04 08:13:34;;;;;;;59.13;13.38;;;;;;;;;;5001488;28;20044;-67
2022/04/04 08:16:00;;;;;;;49.25;13.60;;;;;;;;;;5001748;28;20041;-68
2022/04/04 08:18:26;;;;;;;63.22;14.13;;;;;;;;;;5005754;28;20429;-67
2022/04/04 08:20:51;;;;;;;56.90;13.77;;;;;;;;;;5018536;28;20102;-68
2022/04/04 08:23:17;;;;;;;48.97;13.82;;;;;;;;;;5019789;28;20045;-67
2022/04/04 08:25:44;;;;;;;77.32;14.30;;;;;;;;;;5024015;28;20210;-68
2022/04/04 08:28:10;;;;;;;61.42;14.48;;;;;;;;;;5022855;28;20623;-68
2022/04/04 08:30:35;;;;;;;53.60;11.80;;;;;;;;;;5021780;28;20082;-66
2022/04/04 08:33:04;;;;;;;49.95;12.27;;;;;;;;;;5023022;28;20025;-67
2022/04/04 08:35:32;;;;;;;56.95;12.93;;;;;;;;;;5021267;28;20282;-67
2022/04/04 08:38:02;;;;;;;52.38;12.60;;;;;;;;;;5022859;28;20575;-68
2022/04/04 08:40:27;;;;;;;54.50;13.75;;;;;;;;;;5005269;28;20036;-68
2022/04/04 08:42:53;;;;;;;64.50;14.38;;;;;;;;;;5021110;28;20489;-68
2022/04/04 08:45:21;;;;;;;65.90;14.75;;;;;;;;;;5003276;28;20110;-67
2022/04/04 08:47:49;;;;;;;59.72;14.10;;;;;;;;;;5022282;28;20068;-67
2022/04/04 08:50:18;;;;;;;61.40;13.65;;;;;;;;;;5022549;28;20078;-68
2022/04/04 08:52:43;;;;;;;65.55;14.27;;;;;;;;;;5006227;28;20048;-68
2022/04/04 08:55:15;;;;;;;51.30;12.45;;;;;;;;;;5002614;28;20029;-68
2022/04/04 08:57:40;;;;;;;59.93;12.83;;;;;;;;;;5021885;28;20857;-68
2022/04/04 09:00:16;;;;;;;64.47;13.15;;;;;;;;;;5019651;28;20638;-66
2022/04/04 09:02:54;;;;;;;60.92;12.85;;;;;;;;;;5003658;28;20221;-66
2022/04/04 09:05:22;;;;;;;49.70;10.50;;;;;;;;;;5019753;28;20025;-65
2022/04/04 09:08:00;;;;;;;55.40;9.68;;;;;;;;;;5022544;28;20337;-67
2022/04/04 09:10:33;;;;;;;46.85;8.77;;;;;;;;;;5021228;28;20112;-68
2022/04/04 09:13:11;;;;;;;50.13;9.48;;;;;;;;;;5021282;28;20122;-69
2022/04/04 09:15:53;;;;;;;57.95;10.30;;;;;;;;;;5002371;28;20025;-68
2022/04/04 09:18:19;;;;;;;47.45;9.10;;;;;;;;;;5021073;28;20495;-68
2022/04/04 09:20:53;;;;;;;55.00;9.52;;;;;;;;;;5022310;28;20218;-68
2022/04/04 09:23:19;;;;;;;65.68;10.32;;;;;;;;;;5019245;28;20064;-68
2022/04/04 09:25:45;;;;;;;43.70;7.97;;;;;;;;;;5020400;28;20037;-67
2022/04/04 09:28:15;;;;;;;46.78;8.15;;;;;;;;;;5019474;28;20048;-67
2022/04/04 09:30:43;;;;;;;56.20;9.00;;;;;;;;;;5004918;28;20209;-68
2022/04/04 09:33:15;;;;;;;52.45;8.60;;;;;;;;;;5018521;28;20500;-67
2022/04/04 09:35:45;;;;;;;49.55;9.10;;;;;;;;;;5021062;28;20038;-67
2022/04/04 09:38:15;;;;;;;54.78;9.30;;;;;;;;;;5019811;28;20196;-67
2022/04/04 09:40:44;;;;;;;52.45;9.23;;;;;;;;;;5019095;28;20100;-68
2022/04/04 09:43:09;;;;;;;51.38;8.52;;;;;;;;;;5021608;28;20741;-69
2022/04/04 09:45:34;;;;;;;49.90;7.47;;;;;;;;;;5002276;28;20020;-68
2022/04/04 09:48:07;;;;;;;51.53;7.10;;;;;;;;;;5022069;28;20107;-69
2022/04/04 09:50:41;;;;;;;53.38;8.38;;;;;;;;;;4990967;28;20558;-69
2022/04/04 09:53:11;;;;;;;51.38;8.85;;;;;;;;;;5020841;28;20515;-67
2022/04/04 09:55:40;;;;;;;58.05;8.38;;;;;;;;;;5020584;28;20092;-68
2022/04/04 09:58:07;;;;;;;57.08;9.80;;;;;;;;;;5020852;28;20291;-68
2022/04/04 10:00:36;;;;;;;48.75;8.60;;;;;;;;;;5005629;28;20025;-69
2022/04/04 10:03:02;;;;;;;49.40;7.82;;;;;;;;;;5020817;28;21921;-67
2022/04/04 10:05:31;;;;;;;50.30;9.35;;;;;;;;;;5003161;28;20788;-68
2022/04/04 10:08:00;;;;;;;55.40;9.38;;;;;;;;;;5002689;28;20312;-69
2022/04/04 10:10:27;;;;;;;67.63;9.02;;;;;;;;;;5019901;28;20037;-68
2022/04/04 10:12:55;;;;;;;57.33;10.23;;;;;;;;;;5019058;28;20083;-68
2022/04/04 10:15:22;;;;;;;57.25;9.77;;;;;;;;;;5020231;28;20384;-67
2022/04/04 10:17:50;;;;;;;49.95;7.85;;;;;;;;;;5003022;28;20033;-67
2022/04/04 10:20:16;;;;;;;49.83;8.40;;;;;;;;;;5018736;28;20025;-68
2022/04/04 10:22:42;;;;;;;62.47;10.38;;;;;;;;;;5003886;28;20048;-66
2022/04/04 10:25:10;;;;;;;57.40;9.10;;;;;;;;;;5017845;28;20601;-68
2022/04/04 10:27:40;;;;;;;75.30;11.20;;;;;;;;;;5017957;28;20196;-69
2022/04/04 10:30:08;;;;;;;45.85;9.15;;;;;;;;;;4998415;28;20427;-67
2022/04/04 10:32:34;;;;;;;56.70;9.68;;;;;;;;;;5001654;28;20030;-69
2022/04/04 10:35:10;;;;;;;58.72;10.05;;;;;;;;;;5018239;28;20040;-69
2022/04/04 10:37:43;;;;;;;50.67;9.38;;;;;;;;;;5017785;28;20140;-69
2022/04/04 10:40:21;;;;;;;45.10;9.70;;;;;;;;;;5017519;28;20068;-68
2022/04/04 10:43:18;;;;;;;55.42;9.55;;;;;;;;;;5018204;28;20061;-69
2022/04/04 10:45:53;;;;;;;63.10;10.82;;;;;;;;;;4997928;28;20046;-69
2022/04/04 10:48:28;;;;;;;57.22;10.40;;;;;;;;;;5018795;28;20031;-68
2022/04/04 10:50:54;;;;;;;66.68;12.43;;;;;;;;;;5016599;28;20033;-69
2022/04/04 10:53:35;;;;;;;55.05;11.02;;;;;;;;;;4999245;28;20197;-67
2022/04/04 10:56:04;;;;;;;51.53;12.48;;;;;;;;;;4999623;28;20040;-68
2022/04/04 10:58:30;;;;;;;60.92;11.43;;;;;;;;;;5018100;28;20505;-67
2022/04/04 11:00:55;;;;;;;50.90;13.05;;;;;;;;;;5016505;28;20640;-68
2022/04/04 11:03:32;;;;;;;69.03;13.23;;;;;;;;;;5018536;28;20036;-68
2022/04/04 11:09:02;;;;;;;64.30;13.93;;;;;;;;;;5017733;28;20025;-69
2022/04/04 11:11:48;;;;;;;61.22;14.07;;;;;;;;;;5017659;28;20025;-70
2022/04/04 11:14:14;;;;;;;66.53;14.88;;;;;;;;;;5017054;28;20461;-67
2022/04/04 11:16:58;;;;;;;67.75;16.65;;;;;;;;;;5019102;28;20044;-69
2022/04/04 11:19:27;;;;;;;73.82;16.42;;;;;;;;;;5001090;28;20115;-68
2022/04/04 11:21:56;;;;;;;66.38;16.58;;;;;;;;;;5001524;28;20040;-69
2022/04/04 11:24:21;;;;;;;62.42;16.58;;;;;;;;;;5001631;28;20040;-69
2022/04/04 11:26:47;;;;;;;72.20;17.15;;;;;;;;;;5019854;28;20029;-68
2022/04/04 11:29:21;;;;;;;71.45;17.35;;;;;;;;;;5017212;28;20106;-69
2022/04/04 11:31:47;;;;;;;77.65;17.02;;;;;;;;;;5019240;28;20051;-69
2022/04/04 11:34:13;;;;;;;71.00;17.35;;;;;;;;;;5017989;28;20052;-67
2022/04/04 11:36:45;;;;;;;68.93;18.30;;;;;;;;;;5001406;28;20037;-67
2022/04/04 11:39:10;;;;;;;60.00;16.52;;;;;;;;;;5017610;28;20491;-69
2022/04/04 11:41:36;;;;;;;63.92;16.63;;;;;;;;;;5017295;28;20025;-69
2022/04/04 11:44:04;;;;;;;60.83;15.55;;;;;;;;;;5021012;28;20385;-69
2022/04/04 11:46:30;;;;;;;70.63;17.15;;;;;;;;;;5000804;28;20124;-69
2022/04/04 11:48:56;;;;;;;68.95;17.15;;;;;;;;;;5018453;28;20496;-68
2022/04/04 11:51:44;;;;;;;70.75;15.80;;;;;;;;;;5018465;28;20072;-68
2022/04/04 11:54:11;;;;;;;73.47;16.40;;;;;;;;;;4998273;28;20298;-68
2022/04/04 11:56:36;;;;;;;67.70;16.58;;;;;;;;;;4985444;28;20280;-67
2022/04/04 11:59:04;;;;;;;57.13;14.93;;;;;;;;;;5022889;28;20544;-69
2022/04/04 12:01:35;;;;;;;63.42;15.75;;;;;;;;;;5021312;28;20620;-69
2022/04/04 12:04:01;;;;;;;70.75;15.55;;;;;;;;;;5022058;28;20400;-68
2022/04/04 12:06:30;;;;;;;76.63;15.85;;;;;;;;;;5022348;28;20083;-69
2022/04/04 12:08:57;;;;;;;69.32;15.50;;;;;;;;;;5024501;28;20048;-69
2022/04/04 12:11:31;;;;;;;72.65;16.73;;;;;;;;;;5008535;28;20157;-67
2022/04/04 12:13:57;;;;;;;66.97;16.45;;;;;;;;;;5022309;28;20041;-67
2022/04/04 12:16:23;;;;;;;72.47;16.77;;;;;;;;;;5022942;28;20636;-67
2022/04/04 12:19:04;;;;;;;72.25;16.17;;;;;;;;;;5007415;28;20140;-68
2022/04/04 12:21:32;;;;;;;;;;;;;;;;;;5023419;28;20032;-68
2022/04/04 12:26:42;;;;;;;73.10;16.55;;;;;;;;;;5021642;28;20037;-68
2022/04/04 12:29:12;;;;;;;60.63;14.50;;;;;;;;;;5020861;28;20172;-69
2022/04/04 12:31:38;;;;;;;69.05;16.98;;;;;;;;;;5020730;28;20029;-69
2022/04/04 12:34:06;;;;;;;60.78;15.52;;;;;;;;;;5022754;28;20048;-68
2022/04/04 12:36:35;;;;;;;60.13;16.38;;;;;;;;;;5021419;28;20033;-69
2022/04/04 12:39:03;;;;;;;58.33;15.43;;;;;;;;;;4985277;28;20025;-70
2022/04/04 12:41:39;;;;;;;64.05;15.05;;;;;;;;;;5020445;28;20037;-70
2022/04/04 12:44:06;;;;;;;62.08;15.45;;;;;;;;;;5021847;28;20039;-67
2022/04/04 12:46:35;;;;;;;64.95;14.50;;;;;;;;;;5022174;28;20033;-69
2022/04/04 12:49:14;;;;;;;74.03;16.38;;;;;;;;;;5020296;28;20099;-70
2022/04/04 12:51:52;;;;;;;62.53;14.93;;;;;;;;;;5022350;28;20071;-68
2022/04/04 12:54:28;;;;;;;58.15;15.40;;;;;;;;;;5019915;28;20172;-68
2022/04/04 12:56:54;;;;;;;60.55;13.40;;;;;;;;;;5022709;28;20040;-67
2022/04/04 12:59:25;;;;;;;68.55;14.93;;;;;;;;;;5003231;28;20029;-66
2022/04/04 13:02:09;;;;;;;60.33;15.63;;;;;;;;;;5002214;28;20029;-69
2022/04/04 13:04:36;;;;;;;66.95;14.05;;;;;;;;;;5018222;28;20726;-66
2022/04/04 13:07:04;;;;;;;59.78;13.73;;;;;;;;;;5023004;28;21762;-67
2022/04/04 13:09:30;;;;;;;64.50;14.40;;;;;;;;;;5021825;28;20464;-66
2022/04/04 13:11:56;;;;;;;69.25;14.55;;;;;;;;;;5001518;28;20037;-67
2022/04/04 13:14:25;;;;;;;56.70;14.30;;;;;;;;;;5004088;28;20036;-66
2022/04/04 13:16:56;;;;;;;52.03;13.63;;;;;;;;;;5003129;28;20125;-68
2022/04/04 13:19:23;;;;;;;59.78;14.98;;;;;;;;;;5020306;28;20021;-66
2022/04/04 13:21:51;;;;;;;56.83;14.77;;;;;;;;;;5002292;28;20230;-67
2022/04/04 13:24:17;;;;;;;60.50;13.43;;;;;;;;;;5020364;28;20033;-67
2022/04/04 13:26:45;;;;;;;57.13;14.45;;;;;;;;;;5003692;28;20041;-67
2022/04/04 13:29:16;;;;;;;51.35;13.15;;;;;;;;;;5022498;28;20033;-66
2022/04/04 13:31:42;;;;;;;51.70;13.50;;;;;;;;;;5001669;28;20060;-66
2022/04/04 13:34:08;;;;;;;62.08;14.07;;;;;;;;;;5020760;28;20037;-68
2022/04/04 13:36:43;;;;;;;60.13;13.32;;;;;;;;;;5021550;28;20448;-68
2022/04/04 13:39:09;;;;;;;60.70;14.07;;;;;;;;;;5021258;28;20036;-67
2022/04/04 13:41:37;;;;;;;68.55;14.82;;;;;;;;;;5020843;28;20075;-68
2022/04/04 13:44:04;;;;;;;61.80;13.75;;;;;;;;;;5021171;28;20147;-67
2022/04/04 13:46:34;;;;;;;52.75;14.18;;;;;;;;;;5002950;28;20032;-68
2022/04/04 13:49:02;;;;;;;63.83;13.95;;;;;;;;;;5020397;28;20036;-69
2022/04/04 13:51:29;;;;;;;58.33;15.15;;;;;;;;;;5003277;28;20038;-68
2022/04/04 13:53:59;;;;;;;59.42;14.05;;;;;;;;;;5020307;28;20051;-68
2022/04/04 13:56:28;;;;;;;58.30;12.95;;;;;;;;;;5003546;28;20071;-70
2022/04/04 13:58:54;;;;;;;51.70;13.75;;;;;;;;;;4997920;28;20449;-68
2022/04/04 14:01:20;;;;;;;55.55;14.52;;;;;;;;;;5017924;28;20156;-68
2022/04/04 14:03:46;;;;;;;57.55;14.45;;;;;;;;;;5021249;28;20043;-69
2022/04/04 14:06:12;;;;;;;60.42;14.32;;;;;;;;;;5002697;28;20029;-68
2022/04/04 14:08:40;;;;;;;56.05;13.90;;;;;;;;;;5020279;28;20309;-69
2022/04/04 14:11:10;;;;;;;59.92;14.75;;;;;;;;;;5021260;28;20047;-69
2022/04/04 14:13:39;;;;;;;51.28;14.60;;;;;;;;;;5020661;28;20040;-68
2022/04/04 14:16:06;;;;;;;65.35;15.32;;;;;;;;;;5019148;28;20490;-69
2022/04/04 14:18:32;;;;;;;54.05;15.68;;;;;;;;;;5020738;28;20098;-67
2022/04/04 14:20:58;;;;;;;55.83;15.00;;;;;;;;;;5006016;28;20099;-68
2022/04/04 14:23:26;;;;;;;65.20;15.63;;;;;;;;;;5020030;28;20054;-67
2022/04/04 14:25:52;;;;;;;54.97;15.80;;;;;;;;;;5021936;28;20165;-67
2022/04/04 14:28:17;;;;;;;68.05;15.40;;;;;;;;;;5020387;28;20055;-67
2022/04/04 14:30:42;;;;;;;61.13;16.40;;;;;;;;;;5020235;28;20072;-68
2022/04/04 14:33:08;;;;;;;64.55;15.93;;;;;;;;;;5020583;28;20435;-75